Time;durP1;ratioP1;P1;durP2;ratioP2;P2;SDS_P1;SDS_P2;PMS_P1;PMS_P2;Temp;Humidity;BMP_temperature;BMP_pressure;BME280_temperature;BME280_humidity;BME280_pressure;Samples;Min_cycle;Max_cycle;Signal;HPM_P1;HPM_P2
2022/03/21 00:01:24;;;;;;;;;;;;;;;6.79;100.00;101748.50;4989762;28;20028;-66
2022/03/21 00:04:08;;;;;;;;;;;;;;;6.72;100.00;101744.81;4992953;28;20024;-60
2022/03/21 00:06:53;;;;;;;;;;;;;;;6.63;100.00;101755.13;4989672;28;19972;-61
2022/03/21 00:09:37;;;;;;;;;;;;;;;6.68;100.00;101748.22;4991290;28;20301;-60
2022/03/21 00:12:23;;;;;;;;;;;;;;;6.58;100.00;101756.75;4990055;28;20091;-61
2022/03/21 00:15:11;;;;;;;;;;;;;;;6.56;100.00;101747.88;4977747;28;19979;-61
2022/03/21 00:17:56;;;;;;;;;;;;;;;6.58;100.00;101756.75;4976263;28;19979;-60
2022/03/21 00:20:41;;;;;;;;;;;;;;;6.55;100.00;101750.47;4975189;28;19928;-70
2022/03/21 00:23:26;;;;;;;;;;;;;;;6.55;100.00;101751.38;4990939;28;19928;-60
2022/03/21 00:26:10;;;;;;;;;;;;;;;6.54;100.00;101749.59;4988975;28;19929;-61
2022/03/21 00:28:54;;;;;;;;;;;;;;;6.52;100.00;101743.38;4992584;28;19928;-61
2022/03/21 00:31:39;;;;;;;;;;;;;;;6.51;100.00;101738.06;4991350;28;19936;-60
2022/03/21 00:34:24;;;;;;;;;;;;;;;6.49;100.00;101730.09;4991940;28;19944;-61
2022/03/21 00:37:08;;;;;;;;;;;;;;;6.44;100.00;101731.72;4991000;28;19929;-62
2022/03/21 00:39:53;;;;;;;;;;;;;;;6.37;100.00;101724.50;4989547;28;19932;-67
2022/03/21 00:42:39;;;;;;;;;;;;;;;6.38;100.00;101733.31;4990360;28;19948;-60
2022/03/21 00:45:25;;;;;;;;;;;;;;;6.35;100.00;101727.94;4973938;28;20282;-61
2022/03/21 00:48:10;;;;;;;;;;;;;;;6.25;100.00;101726.78;4991064;28;19933;-61
2022/03/21 00:50:55;;;;;;;;;;;;;;;6.15;100.00;101721.22;4989314;28;20353;-61
2022/03/21 00:53:39;;;;;;;;;;;;;;;6.08;100.00;101724.53;4989935;28;19979;-62
2022/03/21 00:56:24;;;;;;;;;;;;;;;6.09;100.00;101728.97;4991490;28;19971;-61
2022/03/21 00:59:08;;;;;;;;;;;;;;;6.17;100.00;101730.06;4988938;28;19960;-69
2022/03/21 01:01:53;;;;;;;;;;;;;;;6.25;100.00;101731.19;4993063;28;20416;-62
2022/03/21 01:04:38;;;;;;;;;;;;;;;6.23;100.00;101738.13;4988933;28;19968;-62
2022/03/21 01:07:22;;;;;;;;;;;;;;;6.17;100.00;101728.31;4991418;28;19929;-62
2022/03/21 01:10:07;;;;;;;;;;;;;;;6.16;100.00;101728.25;4988935;28;19968;-62
2022/03/21 01:12:52;;;;;;;;;;;;;;;6.08;100.00;101725.44;4975209;28;19928;-61
2022/03/21 01:15:37;;;;;;;;;;;;;;;5.99;100.00;101727.81;4989090;28;19988;-60
2022/03/21 01:18:25;;;;;;;;;;;;;;;5.99;100.00;101713.72;4989622;28;19928;-67
2022/03/21 01:21:09;;;;;;;;;;;;;;;5.86;100.00;101711.59;4990909;28;19980;-60
2022/03/21 01:23:54;;;;;;;;;;;;;;;5.80;100.00;101711.34;4987754;28;19983;-60
2022/03/21 01:26:38;;;;;;;;;;;;;;;5.83;100.00;101715.03;4989792;28;19928;-61
2022/03/21 01:29:23;;;;;;;;;;;;;;;5.79;100.00;101707.84;4989757;28;20031;-60
2022/03/21 01:32:07;;;;;;;;;;;;;;;5.72;100.00;101707.59;4989799;28;20019;-60
2022/03/21 01:34:52;;;;;;;;;;;;;;;5.76;100.00;101714.75;4989752;28;19975;-60
2022/03/21 01:37:36;;;;;;;;;;;;;;;5.75;100.00;101723.50;4974014;28;20405;-67
2022/03/21 01:40:21;;;;;;;;;;;;;;;5.75;100.00;101720.88;4991680;28;20444;-59
2022/03/21 01:43:10;;;;;;;;;;;;;;;5.71;100.00;101718.97;4988051;28;19943;-62
2022/03/21 01:45:54;;;;;;;;;;;;;;;5.64;100.00;101720.53;4989541;28;19928;-60
2022/03/21 01:48:39;;;;;;;;;;;;;;;5.66;100.00;101717.97;4991952;28;20031;-60
2022/03/21 01:51:25;;;;;;;;;;;;;;;5.74;100.00;101729.63;4988418;28;20016;-61
2022/03/21 01:57:14;;;;;;;;;;;;;;;5.65;100.00;101710.91;4994744;28;19921;-61
2022/03/21 01:59:59;;;;;;;;;;;;;;;5.66;100.00;101718.84;4991494;28;19963;-60
2022/03/21 02:02:44;;;;;;;;;;;;;;;5.69;100.00;101712.81;4981591;28;19996;-61
2022/03/21 02:05:29;;;;;;;;;;;;;;;5.67;100.00;101725.00;4991839;28;19928;-62
2022/03/21 02:08:15;;;;;;;;;;;;;;;5.61;100.00;101735.34;4992175;28;19975;-60
2022/03/21 02:11:00;;;;;;;;;;;;;;;5.59;100.00;101724.78;4991687;28;19932;-61
2022/03/21 02:13:46;;;;;;;;;;;;;;;5.51;100.00;101728.00;4964650;28;20012;-60
2022/03/21 02:16:32;;;;;;;;;;;;;;;5.50;100.00;101731.50;4992500;28;19927;-61
2022/03/21 02:19:16;;;;;;;;;;;;;;;5.45;100.00;101726.06;4978009;28;19936;-67
2022/03/21 02:22:07;;;;;;;;;;;;;;;5.43;100.00;101718.97;4995269;28;20401;-59
2022/03/21 02:24:56;;;;;;;;;;;;;;;5.42;100.00;101710.19;4962948;28;20371;-60
2022/03/21 02:27:41;;;;;;;;;;;;;;;5.43;100.00;101714.63;4979493;28;19944;-59
2022/03/21 02:30:27;;;;;;;;;;;;;;;5.41;100.00;101711.03;4993178;28;20362;-60
2022/03/21 02:33:12;;;;;;;;;;;;;;;5.20;100.00;101685.78;4992679;28;19968;-66
2022/03/21 02:35:57;;;;;;;;;;;;;;;5.36;100.00;101711.72;4979998;28;19928;-61
2022/03/21 02:38:43;;;;;;;;;;;;;;;5.26;100.00;101717.56;4990473;28;19976;-60
2022/03/21 02:41:29;;;;;;;;;;;;;;;5.24;100.00;101714.88;4979732;28;19979;-60
2022/03/21 02:44:14;;;;;;;;;;;;;;;5.20;100.00;101712.09;4992537;28;19950;-59
2022/03/21 02:46:58;;;;;;;;;;;;;;;5.23;100.00;101715.72;4993541;28;19929;-62
2022/03/21 02:49:43;;;;;;;;;;;;;;;5.29;100.00;101712.41;4995296;28;20041;-60
2022/03/21 02:52:28;;;;;;;;;;;;;;;5.36;100.00;101719.63;4991199;28;20031;-69
2022/03/21 02:55:13;;;;;;;;;;;;;;;5.08;100.00;101688.94;4995148;28;19950;-59
2022/03/21 02:57:57;;;;;;;;;;;;;;;5.17;100.00;101726.03;4991016;28;19963;-60
2022/03/21 03:00:41;;;;;;;;;;;;;;;5.17;100.00;101725.16;4993560;28;19976;-61
2022/03/21 03:03:26;;;;;;;;;;;;;;;5.24;100.00;101725.41;4991113;28;19921;-60
2022/03/21 03:06:10;;;;;;;;;;;;;;;5.27;100.00;101727.22;4979780;28;19933;-59
2022/03/21 03:08:55;;;;;;;;;;;;;;;5.23;100.00;101734.13;4978528;28;19956;-60
2022/03/21 03:11:39;;;;;;;;;;;;;;;5.25;100.00;101721.91;4991521;28;20413;-68
2022/03/21 03:14:24;;;;;;;;;;;;;;;5.36;100.00;101732.78;4994523;28;19929;-59
2022/03/21 03:17:08;;;;;;;;;;;;;;;5.30;100.00;101722.94;4989716;28;19976;-60
2022/03/21 03:19:53;;;;;;;;;;;;;;;5.31;100.00;101718.59;4991960;28;19987;-60
2022/03/21 03:22:39;;;;;;;;;;;;;;;5.39;100.00;101720.63;4975544;28;19971;-61
2022/03/21 03:25:23;;;;;;;;;;;;;;;5.35;100.00;101717.84;4991672;28;19952;-62
2022/03/21 03:28:08;;;;;;;;;;;;;;;5.21;100.00;101709.50;4991644;28;19953;-61
2022/03/21 03:30:54;;;;;;;;;;;;;;;5.23;100.00;101712.19;4992483;28;20333;-60
2022/03/21 03:33:38;;;;;;;;;;;;;;;5.19;100.00;101716.47;4993732;28;19968;-61
2022/03/21 03:36:23;;;;;;;;;;;;;;;5.13;100.00;101707.50;4989822;28;19997;-57
2022/03/21 03:39:07;;;;;;;;;;;;;;;5.18;100.00;101706.78;4991955;28;20072;-60
2022/03/21 03:41:52;;;;;;;;;;;;;;;4.96;100.00;101665.75;4990306;28;20037;-60
2022/03/21 03:44:37;;;;;;;;;;;;;;;5.21;100.00;101698.13;4992254;28;19929;-60
2022/03/21 03:47:21;;;;;;;;;;;;;;;5.20;100.00;101702.47;4991607;28;19929;-62
2022/03/21 03:50:06;;;;;;;;;;;;;;;5.26;100.00;101700.03;4992543;28;19976;-60
2022/03/21 03:52:50;;;;;;;;;;;;;;;5.15;100.00;101695.28;4976536;28;20501;-62
2022/03/21 03:55:35;;;;;;;;;;;;;;;5.21;100.00;101695.50;4989098;28;20302;-69
2022/03/21 03:58:19;;;;;;;;;;;;;;;5.23;100.00;101692.06;4976753;28;19933;-60
2022/03/21 04:01:05;;;;;;;;;;;;;;;5.27;100.00;101691.31;4988770;28;20301;-60
2022/03/21 04:03:49;;;;;;;;;;;;;;;5.23;100.00;101696.41;4972975;28;19949;-61
2022/03/21 04:06:34;;;;;;;;;;;;;;;5.23;100.00;101696.41;4957251;28;20289;-59
2022/03/21 04:09:18;;;;;;;;;;;;;;;5.21;100.00;101696.34;4970716;28;19929;-60
2022/03/21 04:12:03;;;;;;;;;;;;;;;5.24;100.00;101692.94;4957617;28;20429;-60
2022/03/21 04:14:49;;;;;;;;;;;;;;;5.28;100.00;101700.06;4969921;28;19929;-65
2022/03/21 04:17:35;;;;;;;;;;;;;;;5.19;100.00;101697.16;4970720;28;20042;-61
2022/03/21 04:20:23;;;;;;;;;;;;;;;5.18;100.00;101701.50;4955188;28;20354;-60
2022/03/21 04:23:11;;;;;;;;;;;;;;;5.14;100.00;101697.00;4973055;28;19969;-61
2022/03/21 04:25:57;;;;;;;;;;;;;;;5.08;100.00;101689.81;4957195;28;20082;-60
2022/03/21 04:28:41;;;;;;;;;;;;;;;5.12;100.00;101700.44;4957319;28;20402;-68
2022/03/21 04:31:26;;;;;;;;;;;;;;;5.19;100.00;101698.06;4957990;28;19928;-62
2022/03/21 04:34:10;;;;;;;;;;;;;;;5.16;100.00;101697.06;4969178;28;20286;-62
2022/03/21 04:36:55;;;;;;;;;;;;;;;5.22;100.00;101699.91;4972512;28;19929;-60
2022/03/21 04:39:39;;;;;;;;;;;;;;;5.36;100.00;101699.47;4969870;28;19929;-63
2022/03/21 04:42:24;;;;;;;;;;;;;;;5.38;100.00;101697.78;4972716;28;19929;-61
2022/03/21 04:45:09;;;;;;;;;;;;;;;5.49;100.00;101695.50;4942610;28;19928;-62
2022/03/21 04:47:53;;;;;;;;;;;;;;;5.58;100.00;101690.53;4970017;28;20055;-69
2022/03/21 04:50:38;;;;;;;;;;;;;;;5.62;100.00;101695.91;4956183;28;19929;-62
2022/03/21 04:53:23;;;;;;;;;;;;;;;5.57;100.00;101684.34;4976582;28;19928;-63
2022/03/21 04:56:07;;;;;;;;;;;;;;;5.67;100.00;101689.06;4987531;28;20011;-60
2022/03/21 04:58:52;;;;;;;;;;;;;;;5.75;100.00;101692.81;4988405;28;19928;-61
2022/03/21 05:01:36;;;;;;;;;;;;;;;5.73;100.00;101691.84;4947796;28;19972;-62
2022/03/21 05:04:22;;;;;;;;;;;;;;;5.79;100.00;101686.78;4977009;28;20683;-60
2022/03/21 05:07:11;;;;;;;;;;;;;;;5.86;100.00;101686.16;4947620;28;19945;-63
2022/03/21 05:09:56;;;;;;;;;;;;;;;5.81;100.00;101679.84;4980134;28;19983;-62
2022/03/21 05:12:41;;;;;;;;;;;;;;;5.85;100.00;101694.03;4986685;28;20400;-61
2022/03/21 05:15:25;;;;;;;;;;;;;;;5.89;100.00;101685.38;4989748;28;19928;-61
2022/03/21 05:18:10;;;;;;;;;;;;;;;5.88;100.00;101687.09;4988855;28;20791;-61
2022/03/21 05:20:55;;;;;;;;;;;;;;;5.91;100.00;101676.66;4990710;28;19929;-62
2022/03/21 05:35:52;;;;;;;;;;;;;;;5.93;100.00;101693.38;4990206;28;19928;-69
2022/03/21 05:35:55;;;;;;;;;;;;;;;5.94;100.00;101700.44;4989914;28;19929;-62
2022/03/21 05:38:40;;;;;;;;;;;;;;;6.05;100.00;101709.53;4975056;28;20401;-61
2022/03/21 05:41:25;;;;;;;;;;;;;;;6.05;100.00;101706.03;5001234;28;19972;-68
2022/03/21 05:44:11;;;;;;;;;;;;;;;6.27;100.00;101713.66;4994068;28;19932;-61
2022/03/21 05:46:55;;;;;;;;;;;;;;;6.26;100.00;101709.25;4986680;28;19968;-61
2022/03/21 05:49:40;;;;;;;;;;;;;;;6.32;100.00;101710.31;4993034;28;19976;-62
2022/03/21 05:52:24;;;;;;;;;;;;;;;6.41;100.00;101710.56;4993802;28;20615;-62
2022/03/21 05:55:09;;;;;;;;;;;;;;;6.49;100.00;101705.53;5008954;28;19927;-61
2022/03/21 05:57:53;;;;;;;;;;;;;;;6.51;100.00;101716.97;4990400;28;19972;-62
2022/03/21 06:00:38;;;;;;;;;;;;;;;6.58;100.00;101708.41;4988550;28;19964;-70
2022/03/21 06:03:26;;;;;;;;;;;;;;;6.57;100.00;101709.25;4991081;28;19929;-61
2022/03/21 06:06:14;;;;;;;;;;;;;;;6.69;100.00;101699.91;4986760;28;19976;-60
2022/03/21 06:08:58;;;;;;;;;;;;;;;6.72;100.00;101702.63;4978419;28;19928;-60
2022/03/21 06:11:48;;;;;;;;;;;;;;;6.87;100.00;101691.59;4993407;28;19936;-61
2022/03/21 06:14:34;;;;;;;;;;;;;;;6.88;100.00;101694.25;4974933;28;19953;-68
2022/03/21 06:17:19;;;;;;;;;;;;;;;6.93;100.00;101700.53;4976806;28;19929;-61
2022/03/21 06:20:06;;;;;;;;;;;;;;;6.95;100.00;101690.94;4988049;28;20405;-61
2022/03/21 06:22:51;;;;;;;;;;;;;;;7.00;100.00;101693.69;4989350;28;19929;-61
2022/03/21 06:25:35;;;;;;;;;;;;;;;7.06;100.00;101681.53;4991774;28;19928;-62
2022/03/21 06:28:21;;;;;;;;;;;;;;;7.09;100.00;101683.38;4989166;28;20356;-61
2022/03/21 06:31:06;;;;;;;;;;;;;;;7.22;100.00;101680.16;4990825;28;19928;-60
2022/03/21 06:33:51;;;;;;;;;;;;;;;7.39;100.00;101684.97;4999600;28;19972;-64
2022/03/21 06:36:35;;;;;;;;;;;;;;;7.39;100.00;101677.06;4989932;28;19992;-61
2022/03/21 06:39:20;;;;;;;;;;;;;;;7.42;100.00;101676.22;4989163;28;19929;-62
2022/03/21 06:42:04;;;;;;;;;;;;;;;7.34;100.00;101675.16;4990517;28;19960;-61
2022/03/21 06:44:49;;;;;;;;;;;;;;;7.33;100.00;101676.94;4974517;28;19924;-61
2022/03/21 06:47:35;;;;;;;;;;;;;;;7.45;100.00;101671.94;4977038;28;19928;-61
2022/03/21 06:50:19;;;;;;;;;;;;;;;7.46;100.00;101676.34;4983298;28;19924;-62
2022/03/21 06:53:04;;;;;;;;;;;;;;;7.54;100.00;101674.78;4988942;28;19932;-66
2022/03/21 06:55:48;;;;;;;;;;;;;;;7.61;100.00;101675.81;4994122;28;19929;-62
2022/03/21 06:58:32;;;;;;;;;;;;;;;7.80;100.00;101691.19;4990931;28;19933;-61
2022/03/21 07:01:17;;;;;;;;;;;;;;;7.95;100.00;101683.59;4992470;28;19975;-61
2022/03/21 07:04:01;;;;;;;;;;;;;;;8.26;100.00;101679.00;4993389;28;19964;-59
2022/03/21 07:06:46;;;;;;;;;;;;;;;8.72;100.00;101684.28;4991488;28;19976;-63
2022/03/21 07:09:31;;;;;;;;;;;;;;;9.42;100.00;101687.22;4991003;28;20009;-62
2022/03/21 07:12:15;;;;;;;;;;;;;;;10.14;99.48;101681.19;4988899;28;20400;-71
2022/03/21 07:14:59;;;;;;;;;;;;;;;10.61;92.03;101674.66;4985224;28;20082;-60
2022/03/21 07:17:44;;;;;;;;;;;;;;;11.31;86.51;101682.38;4980896;28;20059;-64
2022/03/21 07:20:29;;;;;;;;;;;;;;;11.81;80.28;101672.97;4970166;28;19940;-62
2022/03/21 07:23:14;;;;;;;;;;;;;;;12.36;77.51;101689.19;4987947;28;19931;-64
2022/03/21 07:25:58;;;;;;;;;;;;;;;12.98;72.98;101684.00;4989539;28;20428;-60
2022/03/21 07:28:42;;;;;;;;;;;;;;;13.79;68.91;101689.25;4985064;28;20381;-60
2022/03/21 07:31:27;;;;;;;;;;;;;;;14.53;64.42;101681.88;4991128;28;19929;-65
2022/03/21 07:34:13;;;;;;;;;;;;;;;15.28;60.54;101685.78;4977205;28;19972;-61
2022/03/21 07:36:58;;;;;;;;;;;;;;;15.81;57.94;101673.69;4975845;28;19928;-62
2022/03/21 07:39:45;;;;;;;;;;;;;;;16.52;53.07;101680.88;4991685;28;19928;-62
2022/03/21 07:42:31;;;;;;;;;;;;;;;17.08;51.12;101678.22;4971519;28;19984;-60
2022/03/21 07:48:20;;;;;;;;;;;;;;;18.50;46.13;101679.13;4991061;28;20039;-59
2022/03/21 07:51:05;;;;;;;;;;;;;;;18.98;43.59;101681.56;4989865;28;19933;-62
2022/03/21 07:53:49;;;;;;;;;;;;;;;19.41;43.30;101679.63;4991897;28;19932;-61
2022/03/21 07:56:34;;;;;;;;;;;;;;;19.63;42.46;101671.88;4978703;28;19972;-61
2022/03/21 07:59:19;;;;;;;;;;;;;;;20.34;37.96;101670.78;4993609;28;20047;-70
2022/03/21 08:02:05;;;;;;;;;;;;;;;20.54;36.95;101665.66;4993369;28;20373;-62
2022/03/21 08:04:50;;;;;;;;;;;;;;;20.19;38.14;101661.34;4975820;28;19944;-62
2022/03/21 08:07:35;;;;;;;;;;;;;;;20.97;34.88;101661.59;4989096;28;20313;-60
2022/03/21 08:10:20;;;;;;;;;;;;;;;21.32;34.71;101672.09;4992323;28;20420;-62
2022/03/21 08:13:05;;;;;;;;;;;;;;;21.17;34.75;101656.41;4989851;28;19929;-62
2022/03/21 08:15:50;;;;;;;;;;;;;;;21.27;33.61;101659.69;4976560;28;20293;-58
2022/03/21 08:18:37;;;;;;;;;;;;;;;21.78;32.91;101666.91;5002484;28;19991;-71
2022/03/21 08:21:22;;;;;;;;;;;;;;;22.46;30.77;101658.94;4962438;28;19976;-59
2022/03/21 08:24:06;;;;;;;;;;;;;;;23.09;29.70;101660.94;4988701;28;19943;-61
2022/03/21 08:26:53;;;;;;;;;;;;;;;23.31;29.08;101670.84;4990804;28;19975;-60
2022/03/21 08:29:39;;;;;;;;;;;;;;;24.76;26.76;101671.44;4994087;28;20067;-61
2022/03/21 08:32:24;;;;;;;;;;;;;;;25.70;24.63;101654.91;4994608;28;19929;-63
2022/03/21 08:35:09;;;;;;;;;;;;;;;24.95;26.14;101677.75;4995296;28;19928;-59
2022/03/21 08:37:53;;;;;;;;;;;;;;;25.77;26.54;101669.94;4988984;28;20007;-63
2022/03/21 08:40:38;;;;;;;;;;;;;;;25.84;26.02;101668.63;4993000;28;19928;-62
2022/03/21 08:43:22;;;;;;;;;;;;;;;25.88;26.13;101655.75;5001352;28;19944;-61
2022/03/21 08:46:07;;;;;;;;;;;;;;;26.40;25.64;101675.59;4990745;28;19929;-60
2022/03/21 08:51:54;;;;;;;;;;;;;;;26.85;21.49;101659.47;4987386;28;20282;-61
2022/03/21 08:54:42;;;;;;;;;;;;;;;26.89;22.80;101656.47;4992164;28;20369;-61
2022/03/21 08:57:27;;;;;;;;;;;;;;;26.83;23.00;101648.66;4961649;28;20041;-62
2022/03/21 09:00:13;;;;;;;;;;;;;;;27.35;21.32;101655.59;4990553;28;20028;-65
2022/03/21 09:02:58;;;;;;;;;;;;;;;28.20;21.15;101645.81;4977334;28;20071;-61
2022/03/21 09:05:43;;;;;;;;;;;;;;;27.45;21.93;101645.88;4988723;28;19929;-62
2022/03/21 09:08:28;;;;;;;;;;;;;;;26.16;21.76;101645.19;5003018;28;19936;-60
2022/03/21 09:11:13;;;;;;;;;;;;;;;26.62;21.90;101641.69;4989269;28;20332;-60
2022/03/21 09:13:58;;;;;;;;;;;;;;;27.11;21.76;101645.22;4991621;28;19931;-63
2022/03/21 09:16:43;;;;;;;;;;;;;;;27.52;20.84;101643.66;4990039;28;19987;-60
2022/03/21 09:19:29;;;;;;;;;;;;;;;28.30;20.09;101642.41;5002617;28;20302;-65
2022/03/21 09:22:14;;;;;;;;;;;;;;;28.21;19.78;101629.34;4977419;28;19949;-62
2022/03/21 09:24:58;;;;;;;;;;;;;;;27.99;19.78;101617.13;4987756;28;19971;-62
2022/03/21 09:27:43;;;;;;;;;;;;;;;27.35;20.04;101613.81;4989877;28;19976;-61
2022/03/21 09:30:27;;;;;;;;;;;;;;;27.23;20.21;101631.81;4987889;28;19976;-61
2022/03/21 09:33:12;;;;;;;;;;;;;;;27.45;18.51;101634.13;4989463;28;19928;-60
2022/03/21 09:35:56;;;;;;;;;;;;;;;27.64;18.97;101619.28;4992528;28;20389;-61
2022/03/21 09:38:42;;;;;;;;;;;;;;;27.41;19.87;101635.28;4990208;28;19968;-66
2022/03/21 09:41:29;;;;;;;;;;;;;;;28.95;18.53;101630.81;4991566;28;20389;-60
2022/03/21 09:44:14;;;;;;;;;;;;;;;28.96;18.45;101627.09;4972354;28;20057;-62
2022/03/21 09:48:08;;;;;;;;;;;;;;;28.33;17.96;101623.09;4976870;28;19994;-60
2022/03/21 09:50:12;;;;;;;;;;;;;;;28.72;18.65;101626.00;4989584;28;20344;-61
2022/03/21 09:52:57;;;;;;;;;;;;;;;28.75;17.64;101627.63;4987419;28;19928;-63
2022/03/21 09:55:43;;;;;;;;;;;;;;;28.80;17.88;101633.69;4975968;28;20038;-62
2022/03/21 09:58:30;;;;;;;;;;;;;;;29.14;18.14;101638.69;4988600;28;20374;-62
2022/03/21 10:01:16;;;;;;;;;;;;;;;29.82;18.06;101634.88;4976430;28;19964;-69
2022/03/21 10:04:00;;;;;;;;;;;;;;;29.29;17.87;101627.63;4993768;28;20417;-61
2022/03/21 10:06:49;;;;;;;;;;;;;;;29.71;16.83;101623.81;4986319;28;19928;-62
2022/03/21 10:09:34;;;;;;;;;;;;;;;29.38;17.13;101617.88;5002305;28;20424;-62
2022/03/21 10:12:20;;;;;;;;;;;;;;;29.82;16.67;101634.88;4974618;28;20337;-61
2022/03/21 10:15:06;;;;;;;;;;;;;;;30.29;17.19;101626.91;4987856;28;20362;-68
2022/03/21 10:18:10;;;;;;;;;;;;;;;30.26;15.97;101623.53;4976805;28;20028;-61
2022/03/21 10:21:08;;;;;;;;;;;;;;;31.50;14.77;101637.88;5002323;28;20008;-61
2022/03/21 10:23:59;;;;;;;;;;;;;;;32.67;14.56;101631.16;4990640;28;20144;-62
2022/03/21 10:26:46;;;;;;;;;;;;;;;33.16;14.18;101634.34;4979211;28;19933;-63
2022/03/21 10:29:31;;;;;;;;;;;;;;;33.50;13.50;101633.28;4978113;28;19928;-62
2022/03/21 10:32:28;;;;;;;;;;;;;;;33.97;14.59;101638.28;4990822;28;19945;-71
2022/03/21 10:35:13;;;;;;;;;;;;;;;33.67;13.87;101629.03;4964740;28;19944;-62
2022/03/21 10:38:03;;;;;;;;;;;;;;;32.98;13.42;101636.75;4994420;28;19972;-62
2022/03/21 10:40:48;;;;;;;;;;;;;;;34.18;12.79;101644.66;4976620;28;19929;-69
2022/03/21 10:43:32;;;;;;;;;;;;;;;33.99;13.33;101640.91;5005742;28;19944;-61
2022/03/21 10:46:20;;;;;;;;;;;;;;;33.72;14.41;101646.03;4975918;28;19952;-62
2022/03/21 10:49:07;;;;;;;;;;;;;;;34.09;12.83;101647.38;5005308;28;19991;-63
2022/03/21 10:51:54;;;;;;;;;;;;;;;34.32;12.75;101640.72;4977702;28;20389;-61
2022/03/21 10:54:48;;;;;;;;;;;;;;;33.69;12.44;101649.06;4970252;28;19928;-67
2022/03/21 10:57:36;;;;;;;;;;;;;;;34.14;13.39;101639.56;4996206;28;20416;-62
2022/03/21 11:00:21;;;;;;;;;;;;;;;33.49;13.30;101639.75;4941196;28;20465;-61
2022/03/21 11:03:15;;;;;;;;;;;;;;;33.30;13.39;101645.03;4946011;28;20405;-61
2022/03/21 11:06:00;;;;;;;;;;;;;;;32.44;14.88;101644.00;4991390;28;19928;-62
2022/03/21 11:08:47;;;;;;;;;;;;;;;32.37;14.49;101633.66;4948072;28;19928;-61
2022/03/21 11:11:33;;;;;;;;;;;;;;;33.01;13.27;101642.00;4992912;28;19944;-62
2022/03/21 11:14:19;;;;;;;;;;;;;;;32.55;13.66;101635.78;4979999;28;19984;-63
2022/03/21 11:17:05;;;;;;;;;;;;;;;31.64;14.90;101634.97;4992326;28;20393;-79
2022/03/21 11:19:49;;;;;;;;;;;;;;;30.67;14.58;101627.75;4994540;28;20017;-63
2022/03/21 11:22:34;;;;;;;;;;;;;;;30.98;14.70;101638.22;4990467;28;20017;-63
2022/03/21 11:25:21;;;;;;;;;;;;;;;31.02;14.35;101627.88;4978834;28;19929;-65
2022/03/21 11:28:31;;;;;;;;;;;;;;;31.90;14.60;101631.94;4960868;28;20369;-64
2022/03/21 11:31:45;;;;;;;;;;;;;;;31.30;14.85;101627.56;4981091;28;19928;-63
2022/03/21 11:34:46;;;;;;;;;;;;;;;29.72;15.37;101627.41;4971887;28;19933;-64
2022/03/21 11:37:32;;;;;;;;;;;;;;;29.17;16.02;101625.72;4989934;28;20020;-64
2022/03/21 11:40:24;;;;;;;;;;;;;;;29.15;16.23;101618.59;4990730;28;19928;-63
2022/03/21 11:43:16;;;;;;;;;;;;;;;28.72;16.07;101615.06;4991439;28;20496;-63
2022/03/21 11:46:20;;;;;;;;;;;;;;;28.59;16.64;101608.66;4993394;28;20513;-70
2022/03/21 11:49:28;;;;;;;;;;;;;;;27.98;17.13;101608.09;4991341;28;19929;-63
2022/03/21 11:52:13;;;;;;;;;;;;;;;27.58;17.19;101621.50;4975931;28;19968;-63
2022/03/21 11:55:18;;;;;;;;;;;;;;;26.79;17.47;101608.06;4962869;28;20321;-63
2022/03/21 11:58:21;;;;;;;;;;;;;;;25.95;18.20;101605.59;4989387;28;20683;-62
2022/03/21 12:01:06;;;;;;;;;;;;;;;25.73;18.46;101594.94;4989234;28;20013;-62
2022/03/21 12:03:51;;;;;;;;;;;;;;;25.41;18.62;101603.91;4962932;28;19928;-62
2022/03/21 12:06:35;;;;;;;;;;;;;;;25.15;19.35;101598.88;4975327;28;20017;-63
2022/03/21 12:09:21;;;;;;;;;;;;;;;25.42;18.92;101602.06;4989846;28;19931;-62
2022/03/21 12:12:05;;;;;;;;;;;;;;;25.32;18.94;101609.78;4990690;28;19972;-62
2022/03/21 12:14:54;;;;;;;;;;;;;;;25.04;19.23;101597.69;4989501;28;19929;-71
2022/03/21 12:17:45;;;;;;;;;;;;;;;24.82;19.16;101589.75;4962296;28;19980;-63
2022/03/21 12:20:45;;;;;;;;;;;;;;;23.91;20.02;101591.41;4992068;28;19928;-62
2022/03/21 12:23:30;;;;;;;;;;;;;;;23.18;20.60;101593.72;4989415;28;20392;-63
2022/03/21 12:26:32;;;;;;;;;;;;;;;23.32;20.83;101594.06;4979712;28;20025;-63
2022/03/21 12:29:33;;;;;;;;;;;;;;;23.32;20.92;101599.50;5004132;28;19928;-62
2022/03/21 12:32:27;;;;;;;;;;;;;;;23.12;20.81;101601.25;4992810;28;19957;-61
2022/03/21 12:35:32;;;;;;;;;;;;;;;22.65;21.13;101596.91;5001827;28;19929;-70
2022/03/21 12:38:20;;;;;;;;;;;;;;;21.83;22.21;101586.59;4988998;28;19984;-64
2022/03/21 12:41:08;;;;;;;;;;;;;;;21.98;21.92;101596.81;4977689;28;20408;-62
2022/03/21 12:43:55;;;;;;;;;;;;;;;21.64;22.15;101588.16;4988735;28;19928;-63
2022/03/21 12:46:40;;;;;;;;;;;;;;;21.72;22.34;101596.91;4961461;28;20394;-65
2022/03/21 12:49:25;;;;;;;;;;;;;;;21.45;22.27;101584.34;4961429;28;19928;-65
2022/03/21 12:52:09;;;;;;;;;;;;;;;21.28;22.67;101588.63;4988757;28;19928;-62
2022/03/21 12:54:55;;;;;;;;;;;;;;;20.95;22.90;101585.25;4993152;28;19967;-63
2022/03/21 12:58:00;;;;;;;;;;;;;;;20.92;23.13;101585.34;4989253;28;19976;-66
2022/03/21 13:00:44;;;;;;;;;;;;;;;20.80;23.13;101582.13;4961670;28;19928;-63
2022/03/21 13:03:29;;;;;;;;;;;;;;;20.32;23.50;101581.88;4992254;28;20401;-62
2022/03/21 13:12:22;;;;;;;;;;;;;;;20.91;23.80;101598.84;4949347;28;19932;-62
2022/03/21 13:15:07;;;;;;;;;;;;;;;20.89;23.45;101598.00;4949732;28;19930;-64
2022/03/21 13:17:57;;;;;;;;;;;;;;;20.62;23.79;101598.91;4935525;29;20080;-70
2022/03/21 13:20:46;;;;;;;;;;;;;;;20.22;24.00;101595.69;4935410;29;20454;-63
2022/03/21 13:23:30;;;;;;;;;;;;;;;20.21;24.07;101589.41;4947558;28;19945;-65
2022/03/21 13:26:21;;;;;;;;;;;;;;;20.12;24.30;101605.84;4934946;29;19969;-63
2022/03/21 13:29:08;;;;;;;;;;;;;;;20.17;24.11;101597.66;4935726;29;19966;-62
2022/03/21 13:31:56;;;;;;;;;;;;;;;20.17;24.52;101600.34;4933774;29;19968;-65
2022/03/21 13:34:47;;;;;;;;;;;;;;;19.59;25.07;101597.53;4948920;29;20103;-62
2022/03/21 13:37:32;;;;;;;;;;;;;;;19.77;25.38;101605.06;4951277;28;20457;-64
2022/03/21 13:40:17;;;;;;;;;;;;;;;19.98;25.09;101604.47;4949251;28;20343;-64
2022/03/21 13:43:15;;;;;;;;;;;;;;;19.86;24.89;101599.44;4951891;28;20409;-64
2022/03/21 13:46:00;;;;;;;;;;;;;;;19.56;25.47;101597.59;4953420;28;19994;-66
2022/03/21 13:48:44;;;;;;;;;;;;;;;19.32;25.72;101607.22;4967749;28;20059;-63
2022/03/21 13:51:31;;;;;;;;;;;;;;;19.46;25.86;101604.16;4997170;28;20294;-63
2022/03/21 13:54:15;;;;;;;;;;;;;;;19.34;25.65;101599.13;4989756;28;19948;-68
2022/03/21 13:57:06;;;;;;;;;;;;;;;18.86;26.11;101603.03;5005057;28;20440;-64
2022/03/21 14:00:17;;;;;;;;;;;;;;;18.63;26.46;101600.88;4992931;28;19932;-64
2022/03/21 14:03:02;;;;;;;;;;;;;;;18.64;26.97;101607.16;4950795;29;20013;-64
2022/03/21 14:05:54;;;;;;;;;;;;;;;18.61;26.74;101602.72;4940891;29;19970;-62
2022/03/21 14:08:38;;;;;;;;;;;;;;;18.73;26.63;101602.44;4952932;29;19929;-63
2022/03/21 14:11:28;;;;;;;;;;;;;;;18.46;26.80;101602.19;4952650;28;19938;-62
2022/03/21 14:14:13;;;;;;;;;;;;;;;18.31;27.30;101605.22;4954065;28;19977;-64
2022/03/21 14:16:58;;;;;;;;;;;;;;;18.16;27.78;101605.53;4937500;29;19945;-63
2022/03/21 14:19:45;;;;;;;;;;;;;;;17.97;27.67;101611.28;4926952;29;19934;-63
2022/03/21 14:22:29;;;;;;;;;;;;;;;17.74;28.00;101600.16;4912684;29;19977;-63
2022/03/21 14:28:17;;;;;;;;;;;;;;;17.44;29.12;101606.09;4951968;29;19968;-64
2022/03/21 14:31:04;;;;;;;;;;;;;;;17.42;28.91;101610.63;4954198;28;19952;-63
2022/03/21 14:33:49;;;;;;;;;;;;;;;17.37;28.91;101615.13;4937266;29;19988;-68
2022/03/21 14:36:33;;;;;;;;;;;;;;;17.17;28.83;101621.78;4951945;29;20083;-63
2022/03/21 14:39:18;;;;;;;;;;;;;;;17.00;28.95;101619.38;4966671;28;19928;-65
2022/03/21 14:42:03;;;;;;;;;;;;;;;16.85;29.43;101625.00;4992459;28;20369;-61